sensor_id;sensor_type;location;lat;lon;timestamp;P1;durP1;ratioP1;P2;durP2;ratioP2
21152;SDS011;10734;44.792;20.482;2023-02-22T00:01:14;51.58;;;25.83;;
21152;SDS011;10734;44.792;20.482;2023-02-22T00:03:50;60.08;;;27.67;;
21152;SDS011;10734;44.792;20.482;2023-02-22T00:06:18;62.28;;;29.55;;
21152;SDS011;10734;44.792;20.482;2023-02-22T00:08:45;78.35;;;37.10;;
21152;SDS011;10734;44.792;20.482;2023-02-22T00:11:12;80.10;;;36.10;;
21152;SDS011;10734;44.792;20.482;2023-02-22T00:13:40;87.38;;;37.25;;
21152;SDS011;10734;44.792;20.482;2023-02-22T00:16:14;75.25;;;34.78;;
21152;SDS011;10734;44.792;20.482;2023-02-22T00:18:41;90.03;;;37.65;;
21152;SDS011;10734;44.792;20.482;2023-02-22T00:21:08;80.85;;;38.78;;
21152;SDS011;10734;44.792;20.482;2023-02-22T00:23:36;78.38;;;37.72;;
21152;SDS011;10734;44.792;20.482;2023-02-22T00:26:05;72.72;;;33.30;;
21152;SDS011;10734;44.792;20.482;2023-02-22T00:28:35;70.30;;;32.85;;
21152;SDS011;10734;44.792;20.482;2023-02-22T00:31:03;63.67;;;30.38;;
21152;SDS011;10734;44.792;20.482;2023-02-22T00:33:32;68.63;;;31.90;;
21152;SDS011;10734;44.792;20.482;2023-02-22T00:35:58;62.45;;;30.13;;
21152;SDS011;10734;44.792;20.482;2023-02-22T00:38:25;57.42;;;28.40;;
21152;SDS011;10734;44.792;20.482;2023-02-22T00:40:51;54.33;;;26.38;;
21152;SDS011;10734;44.792;20.482;2023-02-22T00:43:18;47.22;;;24.30;;
21152;SDS011;10734;44.792;20.482;2023-02-22T00:45:44;53.60;;;25.80;;
21152;SDS011;10734;44.792;20.482;2023-02-22T00:48:11;48.78;;;23.75;;
21152;SDS011;10734;44.792;20.482;2023-02-22T00:50:38;47.53;;;23.27;;
21152;SDS011;10734;44.792;20.482;2023-02-22T00:53:05;42.47;;;22.02;;
21152;SDS011;10734;44.792;20.482;2023-02-22T00:55:34;46.03;;;23.35;;
21152;SDS011;10734;44.792;20.482;2023-02-22T00:58:02;55.47;;;23.33;;
21152;SDS011;10734;44.792;20.482;2023-02-22T01:02:55;47.33;;;23.05;;
21152;SDS011;10734;44.792;20.482;2023-02-22T01:05:23;46.13;;;23.90;;
21152;SDS011;10734;44.792;20.482;2023-02-22T01:07:50;57.05;;;26.98;;
21152;SDS011;10734;44.792;20.482;2023-02-22T01:10:18;59.85;;;28.25;;
21152;SDS011;10734;44.792;20.482;2023-02-22T01:12:45;63.95;;;29.05;;
21152;SDS011;10734;44.792;20.482;2023-02-22T01:15:12;58.58;;;28.77;;
21152;SDS011;10734;44.792;20.482;2023-02-22T01:17:39;57.47;;;26.55;;
21152;SDS011;10734;44.792;20.482;2023-02-22T01:20:07;60.38;;;30.17;;
21152;SDS011;10734;44.792;20.482;2023-02-22T01:22:38;62.38;;;28.55;;
21152;SDS011;10734;44.792;20.482;2023-02-22T01:25:05;55.63;;;24.42;;
21152;SDS011;10734;44.792;20.482;2023-02-22T01:27:33;61.85;;;26.95;;
21152;SDS011;10734;44.792;20.482;2023-02-22T01:30:00;59.72;;;28.77;;
21152;SDS011;10734;44.792;20.482;2023-02-22T01:32:27;49.58;;;25.02;;
21152;SDS011;10734;44.792;20.482;2023-02-22T01:34:53;49.40;;;24.23;;
21152;SDS011;10734;44.792;20.482;2023-02-22T01:37:20;43.67;;;22.42;;
21152;SDS011;10734;44.792;20.482;2023-02-22T01:39:46;43.05;;;21.60;;
21152;SDS011;10734;44.792;20.482;2023-02-22T01:42:13;48.60;;;23.75;;
21152;SDS011;10734;44.792;20.482;2023-02-22T01:44:39;43.38;;;19.45;;
21152;SDS011;10734;44.792;20.482;2023-02-22T01:47:06;40.08;;;19.35;;
21152;SDS011;10734;44.792;20.482;2023-02-22T01:49:45;35.90;;;18.52;;
21152;SDS011;10734;44.792;20.482;2023-02-22T01:52:14;37.25;;;17.92;;
21152;SDS011;10734;44.792;20.482;2023-02-22T01:54:43;39.92;;;19.25;;
21152;SDS011;10734;44.792;20.482;2023-02-22T01:57:15;44.22;;;20.70;;
21152;SDS011;10734;44.792;20.482;2023-02-22T02:02:09;34.45;;;16.88;;
21152;SDS011;10734;44.792;20.482;2023-02-22T02:04:36;42.58;;;19.65;;
21152;SDS011;10734;44.792;20.482;2023-02-22T02:07:04;41.25;;;19.40;;
21152;SDS011;10734;44.792;20.482;2023-02-22T02:09:38;46.08;;;22.63;;
21152;SDS011;10734;44.792;20.482;2023-02-22T02:12:06;44.28;;;19.30;;
21152;SDS011;10734;44.792;20.482;2023-02-22T02:14:33;50.40;;;23.25;;
21152;SDS011;10734;44.792;20.482;2023-02-22T02:22:07;38.58;;;20.38;;
21152;SDS011;10734;44.792;20.482;2023-02-22T02:29:48;49.25;;;25.10;;
21152;SDS011;10734;44.792;20.482;2023-02-22T02:35:05;48.10;;;24.88;;
21152;SDS011;10734;44.792;20.482;2023-02-22T02:37:55;45.28;;;25.38;;
21152;SDS011;10734;44.792;20.482;2023-02-22T02:45:22;54.10;;;25.08;;
21152;SDS011;10734;44.792;20.482;2023-02-22T02:47:51;57.22;;;25.45;;
21152;SDS011;10734;44.792;20.482;2023-02-22T02:50:21;47.20;;;24.60;;
21152;SDS011;10734;44.792;20.482;2023-02-22T02:52:48;55.85;;;27.35;;
21152;SDS011;10734;44.792;20.482;2023-02-22T02:55:16;46.20;;;23.80;;
21152;SDS011;10734;44.792;20.482;2023-02-22T02:57:43;43.35;;;22.42;;
21152;SDS011;10734;44.792;20.482;2023-02-22T03:00:10;49.58;;;23.95;;
21152;SDS011;10734;44.792;20.482;2023-02-22T03:02:57;55.03;;;25.67;;
21152;SDS011;10734;44.792;20.482;2023-02-22T03:13:28;67.50;;;31.27;;
21152;SDS011;10734;44.792;20.482;2023-02-22T03:16:11;61.33;;;29.90;;
21152;SDS011;10734;44.792;20.482;2023-02-22T03:21:17;61.80;;;29.92;;
21152;SDS011;10734;44.792;20.482;2023-02-22T03:26:39;59.38;;;30.92;;
21152;SDS011;10734;44.792;20.482;2023-02-22T03:31:34;56.70;;;28.17;;
21152;SDS011;10734;44.792;20.482;2023-02-22T03:34:05;62.45;;;30.60;;
21152;SDS011;10734;44.792;20.482;2023-02-22T03:36:34;72.07;;;35.45;;
21152;SDS011;10734;44.792;20.482;2023-02-22T03:39:05;62.03;;;31.90;;
21152;SDS011;10734;44.792;20.482;2023-02-22T03:41:32;70.43;;;31.17;;
21152;SDS011;10734;44.792;20.482;2023-02-22T03:44:04;59.28;;;29.42;;
21152;SDS011;10734;44.792;20.482;2023-02-22T03:46:31;58.30;;;30.77;;
21152;SDS011;10734;44.792;20.482;2023-02-22T03:51:35;74.28;;;36.50;;
21152;SDS011;10734;44.792;20.482;2023-02-22T03:54:02;63.80;;;32.08;;
21152;SDS011;10734;44.792;20.482;2023-02-22T03:56:30;65.00;;;31.73;;
21152;SDS011;10734;44.792;20.482;2023-02-22T03:59:04;61.08;;;30.83;;
21152;SDS011;10734;44.792;20.482;2023-02-22T04:01:32;72.40;;;35.40;;
21152;SDS011;10734;44.792;20.482;2023-02-22T04:03:58;57.58;;;27.90;;
21152;SDS011;10734;44.792;20.482;2023-02-22T04:06:25;71.07;;;31.40;;
21152;SDS011;10734;44.792;20.482;2023-02-22T04:08:52;57.95;;;29.45;;
21152;SDS011;10734;44.792;20.482;2023-02-22T04:11:19;65.68;;;33.42;;
21152;SDS011;10734;44.792;20.482;2023-02-22T04:13:45;68.93;;;33.65;;
21152;SDS011;10734;44.792;20.482;2023-02-22T04:16:12;65.15;;;32.65;;
21152;SDS011;10734;44.792;20.482;2023-02-22T04:18:38;78.60;;;39.42;;
21152;SDS011;10734;44.792;20.482;2023-02-22T04:21:05;74.13;;;37.33;;
21152;SDS011;10734;44.792;20.482;2023-02-22T04:23:31;59.85;;;30.00;;
21152;SDS011;10734;44.792;20.482;2023-02-22T04:25:58;62.78;;;29.65;;
21152;SDS011;10734;44.792;20.482;2023-02-22T04:28:24;58.50;;;28.08;;
21152;SDS011;10734;44.792;20.482;2023-02-22T04:30:51;62.63;;;27.30;;
21152;SDS011;10734;44.792;20.482;2023-02-22T04:33:17;54.05;;;26.25;;
21152;SDS011;10734;44.792;20.482;2023-02-22T04:35:44;53.03;;;25.30;;
21152;SDS011;10734;44.792;20.482;2023-02-22T04:38:10;53.05;;;25.98;;
21152;SDS011;10734;44.792;20.482;2023-02-22T04:40:37;59.78;;;28.48;;
21152;SDS011;10734;44.792;20.482;2023-02-22T04:43:03;52.55;;;27.00;;
21152;SDS011;10734;44.792;20.482;2023-02-22T04:45:30;51.08;;;25.70;;
21152;SDS011;10734;44.792;20.482;2023-02-22T04:47:56;53.45;;;27.48;;
21152;SDS011;10734;44.792;20.482;2023-02-22T04:50:23;58.22;;;28.80;;
21152;SDS011;10734;44.792;20.482;2023-02-22T04:52:49;53.45;;;26.80;;
21152;SDS011;10734;44.792;20.482;2023-02-22T04:55:16;48.22;;;25.00;;
21152;SDS011;10734;44.792;20.482;2023-02-22T04:57:42;46.08;;;24.92;;
21152;SDS011;10734;44.792;20.482;2023-02-22T05:00:09;45.10;;;23.40;;
21152;SDS011;10734;44.792;20.482;2023-02-22T05:02:39;46.22;;;23.75;;
21152;SDS011;10734;44.792;20.482;2023-02-22T05:05:06;50.20;;;22.58;;
21152;SDS011;10734;44.792;20.482;2023-02-22T05:07:32;46.33;;;21.92;;
21152;SDS011;10734;44.792;20.482;2023-02-22T05:09:59;48.25;;;22.83;;
21152;SDS011;10734;44.792;20.482;2023-02-22T05:12:28;46.63;;;22.23;;
21152;SDS011;10734;44.792;20.482;2023-02-22T05:14:54;38.05;;;21.00;;
21152;SDS011;10734;44.792;20.482;2023-02-22T05:17:21;41.95;;;21.38;;
21152;SDS011;10734;44.792;20.482;2023-02-22T05:19:47;38.65;;;21.05;;
21152;SDS011;10734;44.792;20.482;2023-02-22T05:22:14;41.60;;;21.73;;
21152;SDS011;10734;44.792;20.482;2023-02-22T05:24:40;39.63;;;21.02;;
21152;SDS011;10734;44.792;20.482;2023-02-22T05:27:06;38.10;;;20.42;;
21152;SDS011;10734;44.792;20.482;2023-02-22T05:29:33;47.45;;;22.85;;
21152;SDS011;10734;44.792;20.482;2023-02-22T05:31:59;40.70;;;20.60;;
21152;SDS011;10734;44.792;20.482;2023-02-22T05:34:28;49.42;;;23.83;;
21152;SDS011;10734;44.792;20.482;2023-02-22T05:36:54;51.17;;;22.35;;
21152;SDS011;10734;44.792;20.482;2023-02-22T05:39:20;42.15;;;21.85;;
21152;SDS011;10734;44.792;20.482;2023-02-22T05:41:47;45.28;;;23.27;;
21152;SDS011;10734;44.792;20.482;2023-02-22T05:44:13;46.97;;;24.40;;
21152;SDS011;10734;44.792;20.482;2023-02-22T05:46:40;52.28;;;25.05;;
21152;SDS011;10734;44.792;20.482;2023-02-22T05:49:07;51.90;;;25.05;;
21152;SDS011;10734;44.792;20.482;2023-02-22T05:51:33;48.63;;;26.23;;
21152;SDS011;10734;44.792;20.482;2023-02-22T05:54:00;54.05;;;23.98;;
21152;SDS011;10734;44.792;20.482;2023-02-22T05:56:27;52.28;;;24.35;;
21152;SDS011;10734;44.792;20.482;2023-02-22T05:58:54;48.35;;;23.33;;
21152;SDS011;10734;44.792;20.482;2023-02-22T06:01:21;47.67;;;24.25;;
21152;SDS011;10734;44.792;20.482;2023-02-22T06:03:48;48.88;;;23.42;;
21152;SDS011;10734;44.792;20.482;2023-02-22T06:06:15;45.22;;;23.83;;
21152;SDS011;10734;44.792;20.482;2023-02-22T06:08:42;42.85;;;24.23;;
21152;SDS011;10734;44.792;20.482;2023-02-22T06:11:09;46.67;;;22.63;;
21152;SDS011;10734;44.792;20.482;2023-02-22T06:13:35;42.72;;;23.50;;
21152;SDS011;10734;44.792;20.482;2023-02-22T06:16:02;50.33;;;26.45;;
21152;SDS011;10734;44.792;20.482;2023-02-22T06:18:29;47.10;;;24.90;;
21152;SDS011;10734;44.792;20.482;2023-02-22T06:20:57;42.92;;;25.20;;
21152;SDS011;10734;44.792;20.482;2023-02-22T06:23:23;45.88;;;24.05;;
21152;SDS011;10734;44.792;20.482;2023-02-22T06:25:50;42.30;;;23.25;;
21152;SDS011;10734;44.792;20.482;2023-02-22T06:28:17;44.38;;;24.40;;
21152;SDS011;10734;44.792;20.482;2023-02-22T06:30:43;50.42;;;24.23;;
21152;SDS011;10734;44.792;20.482;2023-02-22T06:33:10;55.42;;;24.23;;
21152;SDS011;10734;44.792;20.482;2023-02-22T06:35:37;41.75;;;23.27;;
21152;SDS011;10734;44.792;20.482;2023-02-22T06:38:03;51.53;;;26.00;;
21152;SDS011;10734;44.792;20.482;2023-02-22T06:40:30;44.53;;;23.23;;
21152;SDS011;10734;44.792;20.482;2023-02-22T06:42:56;51.92;;;25.10;;
21152;SDS011;10734;44.792;20.482;2023-02-22T06:45:23;49.03;;;24.63;;
21152;SDS011;10734;44.792;20.482;2023-02-22T06:47:50;43.25;;;22.85;;
21152;SDS011;10734;44.792;20.482;2023-02-22T06:50:20;45.50;;;25.83;;
21152;SDS011;10734;44.792;20.482;2023-02-22T06:52:47;33.20;;;19.00;;
21152;SDS011;10734;44.792;20.482;2023-02-22T06:55:17;47.53;;;27.48;;
21152;SDS011;10734;44.792;20.482;2023-02-22T06:57:44;52.70;;;27.20;;
21152;SDS011;10734;44.792;20.482;2023-02-22T07:00:11;45.33;;;25.92;;
21152;SDS011;10734;44.792;20.482;2023-02-22T07:02:37;50.28;;;27.77;;
21152;SDS011;10734;44.792;20.482;2023-02-22T07:05:04;54.25;;;28.05;;
21152;SDS011;10734;44.792;20.482;2023-02-22T07:07:30;49.35;;;28.58;;
21152;SDS011;10734;44.792;20.482;2023-02-22T07:09:57;52.63;;;27.20;;
21152;SDS011;10734;44.792;20.482;2023-02-22T07:12:23;46.15;;;26.83;;
21152;SDS011;10734;44.792;20.482;2023-02-22T07:14:53;54.85;;;28.85;;
21152;SDS011;10734;44.792;20.482;2023-02-22T07:17:19;61.90;;;30.58;;
21152;SDS011;10734;44.792;20.482;2023-02-22T07:19:46;52.15;;;28.55;;
21152;SDS011;10734;44.792;20.482;2023-02-22T07:22:12;50.17;;;27.67;;
21152;SDS011;10734;44.792;20.482;2023-02-22T07:24:39;48.80;;;27.35;;
21152;SDS011;10734;44.792;20.482;2023-02-22T07:27:06;54.05;;;29.83;;
21152;SDS011;10734;44.792;20.482;2023-02-22T07:29:32;46.47;;;28.17;;
21152;SDS011;10734;44.792;20.482;2023-02-22T07:32:01;61.22;;;28.95;;
21152;SDS011;10734;44.792;20.482;2023-02-22T07:34:28;50.33;;;27.80;;
21152;SDS011;10734;44.792;20.482;2023-02-22T07:36:54;55.90;;;30.30;;
21152;SDS011;10734;44.792;20.482;2023-02-22T07:39:21;56.03;;;28.65;;
21152;SDS011;10734;44.792;20.482;2023-02-22T07:41:47;56.50;;;28.80;;
21152;SDS011;10734;44.792;20.482;2023-02-22T07:44:14;53.40;;;28.55;;
21152;SDS011;10734;44.792;20.482;2023-02-22T07:46:41;53.53;;;27.85;;
21152;SDS011;10734;44.792;20.482;2023-02-22T07:49:11;58.40;;;29.83;;
21152;SDS011;10734;44.792;20.482;2023-02-22T07:51:38;56.50;;;30.45;;
21152;SDS011;10734;44.792;20.482;2023-02-22T07:54:04;54.88;;;30.55;;
21152;SDS011;10734;44.792;20.482;2023-02-22T07:56:31;52.65;;;29.50;;
21152;SDS011;10734;44.792;20.482;2023-02-22T07:58:57;51.20;;;28.13;;
21152;SDS011;10734;44.792;20.482;2023-02-22T08:01:24;53.80;;;30.38;;
21152;SDS011;10734;44.792;20.482;2023-02-22T08:03:51;57.47;;;29.15;;
21152;SDS011;10734;44.792;20.482;2023-02-22T08:06:18;53.25;;;30.05;;
21152;SDS011;10734;44.792;20.482;2023-02-22T08:08:46;50.47;;;28.02;;
21152;SDS011;10734;44.792;20.482;2023-02-22T08:11:12;46.90;;;26.33;;
21152;SDS011;10734;44.792;20.482;2023-02-22T08:13:39;49.88;;;23.65;;
21152;SDS011;10734;44.792;20.482;2023-02-22T08:16:06;47.58;;;26.27;;
21152;SDS011;10734;44.792;20.482;2023-02-22T08:18:33;52.35;;;25.15;;
21152;SDS011;10734;44.792;20.482;2023-02-22T08:21:00;43.13;;;25.35;;
21152;SDS011;10734;44.792;20.482;2023-02-22T08:23:27;50.17;;;26.48;;
21152;SDS011;10734;44.792;20.482;2023-02-22T08:25:53;43.00;;;23.75;;
21152;SDS011;10734;44.792;20.482;2023-02-22T08:28:21;45.03;;;24.70;;
21152;SDS011;10734;44.792;20.482;2023-02-22T08:30:49;42.55;;;24.30;;
21152;SDS011;10734;44.792;20.482;2023-02-22T08:33:16;38.15;;;23.05;;
21152;SDS011;10734;44.792;20.482;2023-02-22T08:35:45;34.10;;;23.00;;
21152;SDS011;10734;44.792;20.482;2023-02-22T08:40:48;38.87;;;23.47;;
21152;SDS011;10734;44.792;20.482;2023-02-22T08:43:16;43.70;;;24.55;;
21152;SDS011;10734;44.792;20.482;2023-02-22T08:45:44;39.90;;;24.63;;
21152;SDS011;10734;44.792;20.482;2023-02-22T08:48:12;37.15;;;23.90;;
21152;SDS011;10734;44.792;20.482;2023-02-22T08:50:39;42.08;;;22.83;;
21152;SDS011;10734;44.792;20.482;2023-02-22T08:53:10;43.55;;;22.88;;
21152;SDS011;10734;44.792;20.482;2023-02-22T08:55:39;38.20;;;22.23;;
21152;SDS011;10734;44.792;20.482;2023-02-22T08:58:07;38.42;;;21.42;;
21152;SDS011;10734;44.792;20.482;2023-02-22T09:00:38;35.28;;;20.63;;
21152;SDS011;10734;44.792;20.482;2023-02-22T09:03:06;33.58;;;21.55;;
21152;SDS011;10734;44.792;20.482;2023-02-22T09:05:35;56.08;;;36.53;;
21152;SDS011;10734;44.792;20.482;2023-02-22T09:08:02;37.40;;;24.92;;
21152;SDS011;10734;44.792;20.482;2023-02-22T09:10:31;29.48;;;20.20;;
21152;SDS011;10734;44.792;20.482;2023-02-22T09:12:59;34.40;;;19.83;;
21152;SDS011;10734;44.792;20.482;2023-02-22T09:15:27;35.33;;;20.33;;
21152;SDS011;10734;44.792;20.482;2023-02-22T09:17:54;34.13;;;19.75;;
21152;SDS011;10734;44.792;20.482;2023-02-22T09:20:21;34.03;;;17.90;;
21152;SDS011;10734;44.792;20.482;2023-02-22T09:22:49;27.60;;;16.90;;
21152;SDS011;10734;44.792;20.482;2023-02-22T09:25:16;28.65;;;16.60;;
21152;SDS011;10734;44.792;20.482;2023-02-22T09:27:48;26.17;;;15.68;;
21152;SDS011;10734;44.792;20.482;2023-02-22T09:30:18;21.13;;;13.93;;
21152;SDS011;10734;44.792;20.482;2023-02-22T09:32:56;23.02;;;13.32;;
21152;SDS011;10734;44.792;20.482;2023-02-22T09:35:25;24.92;;;13.73;;
21152;SDS011;10734;44.792;20.482;2023-02-22T09:37:55;22.60;;;15.40;;
21152;SDS011;10734;44.792;20.482;2023-02-22T09:40:28;28.90;;;14.32;;
21152;SDS011;10734;44.792;20.482;2023-02-22T09:45:27;23.08;;;11.90;;
21152;SDS011;10734;44.792;20.482;2023-02-22T09:48:02;22.88;;;12.00;;
21152;SDS011;10734;44.792;20.482;2023-02-22T09:50:46;19.67;;;12.05;;
21152;SDS011;10734;44.792;20.482;2023-02-22T09:56:14;27.17;;;15.77;;
21152;SDS011;10734;44.792;20.482;2023-02-22T10:06:41;13.55;;;8.55;;
21152;SDS011;10734;44.792;20.482;2023-02-22T10:09:17;15.82;;;9.32;;
21152;SDS011;10734;44.792;20.482;2023-02-22T10:11:57;15.00;;;10.13;;
21152;SDS011;10734;44.792;20.482;2023-02-22T10:20:14;51.58;;;28.85;;
21152;SDS011;10734;44.792;20.482;2023-02-22T10:27:51;15.27;;;9.90;;
21152;SDS011;10734;44.792;20.482;2023-02-22T10:30:32;18.17;;;11.60;;
21152;SDS011;10734;44.792;20.482;2023-02-22T10:33:16;21.43;;;12.10;;
21152;SDS011;10734;44.792;20.482;2023-02-22T10:35:46;28.92;;;12.73;;
21152;SDS011;10734;44.792;20.482;2023-02-22T10:38:21;17.85;;;10.27;;
21152;SDS011;10734;44.792;20.482;2023-02-22T10:43:26;29.98;;;15.10;;
21152;SDS011;10734;44.792;20.482;2023-02-22T10:45:54;23.35;;;13.35;;
21152;SDS011;10734;44.792;20.482;2023-02-22T10:48:23;17.33;;;9.40;;
21152;SDS011;10734;44.792;20.482;2023-02-22T10:50:53;12.77;;;9.15;;
21152;SDS011;10734;44.792;20.482;2023-02-22T10:53:27;15.27;;;9.75;;
21152;SDS011;10734;44.792;20.482;2023-02-22T11:06:25;26.63;;;15.95;;
21152;SDS011;10734;44.792;20.482;2023-02-22T11:09:02;25.33;;;15.45;;
21152;SDS011;10734;44.792;20.482;2023-02-22T11:11:38;25.48;;;15.10;;
21152;SDS011;10734;44.792;20.482;2023-02-22T11:14:07;24.27;;;13.80;;
21152;SDS011;10734;44.792;20.482;2023-02-22T11:16:37;21.42;;;11.77;;
21152;SDS011;10734;44.792;20.482;2023-02-22T11:21:50;14.65;;;10.82;;
21152;SDS011;10734;44.792;20.482;2023-02-22T11:24:21;16.33;;;10.57;;
21152;SDS011;10734;44.792;20.482;2023-02-22T11:26:59;17.30;;;10.80;;
21152;SDS011;10734;44.792;20.482;2023-02-22T11:29:28;13.80;;;9.48;;
21152;SDS011;10734;44.792;20.482;2023-02-22T11:32:01;16.95;;;10.30;;
21152;SDS011;10734;44.792;20.482;2023-02-22T11:34:47;17.13;;;9.50;;
21152;SDS011;10734;44.792;20.482;2023-02-22T11:37:34;11.55;;;7.97;;
21152;SDS011;10734;44.792;20.482;2023-02-22T11:40:12;17.17;;;9.03;;
21152;SDS011;10734;44.792;20.482;2023-02-22T11:42:47;13.27;;;8.63;;
21152;SDS011;10734;44.792;20.482;2023-02-22T11:45:31;17.63;;;9.75;;
21152;SDS011;10734;44.792;20.482;2023-02-22T11:48:02;15.15;;;8.18;;
21152;SDS011;10734;44.792;20.482;2023-02-22T11:56:14;10.25;;;7.60;;
21152;SDS011;10734;44.792;20.482;2023-02-22T12:04:47;13.02;;;8.25;;
21152;SDS011;10734;44.792;20.482;2023-02-22T12:15:59;12.18;;;8.13;;
21152;SDS011;10734;44.792;20.482;2023-02-22T12:20:57;18.75;;;10.27;;
21152;SDS011;10734;44.792;20.482;2023-02-22T12:36:54;15.27;;;8.63;;
21152;SDS011;10734;44.792;20.482;2023-02-22T12:39:36;18.65;;;9.63;;
21152;SDS011;10734;44.792;20.482;2023-02-22T12:42:20;18.63;;;10.63;;
21152;SDS011;10734;44.792;20.482;2023-02-22T12:44:51;15.25;;;9.38;;
21152;SDS011;10734;44.792;20.482;2023-02-22T12:47:23;13.23;;;9.75;;
21152;SDS011;10734;44.792;20.482;2023-02-22T12:55:54;13.82;;;9.35;;
21152;SDS011;10734;44.792;20.482;2023-02-22T12:58:28;18.10;;;11.55;;
21152;SDS011;10734;44.792;20.482;2023-02-22T13:00:59;18.73;;;10.60;;
21152;SDS011;10734;44.792;20.482;2023-02-22T13:03:33;13.15;;;9.68;;
21152;SDS011;10734;44.792;20.482;2023-02-22T13:20:23;11.60;;;9.07;;
21152;SDS011;10734;44.792;20.482;2023-02-22T13:28:21;17.35;;;10.82;;
21152;SDS011;10734;44.792;20.482;2023-02-22T13:31:08;10.32;;;8.68;;
21152;SDS011;10734;44.792;20.482;2023-02-22T13:37:00;11.82;;;9.05;;
21152;SDS011;10734;44.792;20.482;2023-02-22T13:42:51;11.43;;;8.77;;
21152;SDS011;10734;44.792;20.482;2023-02-22T13:53:58;12.38;;;9.13;;
21152;SDS011;10734;44.792;20.482;2023-02-22T13:56:48;11.93;;;8.57;;
21152;SDS011;10734;44.792;20.482;2023-02-22T13:59:35;12.73;;;9.02;;
21152;SDS011;10734;44.792;20.482;2023-02-22T14:02:03;11.98;;;8.27;;
21152;SDS011;10734;44.792;20.482;2023-02-22T14:04:37;12.73;;;8.90;;
21152;SDS011;10734;44.792;20.482;2023-02-22T14:09:55;11.40;;;8.27;;
21152;SDS011;10734;44.792;20.482;2023-02-22T14:18:01;16.23;;;9.20;;
21152;SDS011;10734;44.792;20.482;2023-02-22T14:20:36;15.02;;;8.48;;
21152;SDS011;10734;44.792;20.482;2023-02-22T14:26:10;14.35;;;9.70;;
21152;SDS011;10734;44.792;20.482;2023-02-22T14:28:44;17.77;;;10.20;;
21152;SDS011;10734;44.792;20.482;2023-02-22T14:31:18;17.73;;;11.73;;
21152;SDS011;10734;44.792;20.482;2023-02-22T14:44:52;17.77;;;11.07;;
21152;SDS011;10734;44.792;20.482;2023-02-22T14:55:41;16.48;;;10.35;;
21152;SDS011;10734;44.792;20.482;2023-02-22T14:58:19;25.92;;;16.65;;
21152;SDS011;10734;44.792;20.482;2023-02-22T15:00:51;23.48;;;15.27;;
21152;SDS011;10734;44.792;20.482;2023-02-22T15:03:29;19.38;;;11.02;;
21152;SDS011;10734;44.792;20.482;2023-02-22T15:06:05;12.68;;;9.02;;
21152;SDS011;10734;44.792;20.482;2023-02-22T15:08:46;14.95;;;9.20;;
21152;SDS011;10734;44.792;20.482;2023-02-22T15:11:24;12.38;;;8.00;;
21152;SDS011;10734;44.792;20.482;2023-02-22T15:13:56;10.98;;;7.82;;
21152;SDS011;10734;44.792;20.482;2023-02-22T15:16:25;10.90;;;7.55;;
21152;SDS011;10734;44.792;20.482;2023-02-22T15:21:26;13.73;;;7.55;;
21152;SDS011;10734;44.792;20.482;2023-02-22T15:23:58;32.33;;;19.38;;
21152;SDS011;10734;44.792;20.482;2023-02-22T15:29:09;12.07;;;8.48;;
21152;SDS011;10734;44.792;20.482;2023-02-22T15:31:48;14.80;;;7.35;;
21152;SDS011;10734;44.792;20.482;2023-02-22T15:36:45;12.68;;;6.15;;
21152;SDS011;10734;44.792;20.482;2023-02-22T15:39:20;11.55;;;6.93;;
21152;SDS011;10734;44.792;20.482;2023-02-22T15:44:49;13.18;;;6.88;;
21152;SDS011;10734;44.792;20.482;2023-02-22T15:47:24;11.75;;;6.53;;
21152;SDS011;10734;44.792;20.482;2023-02-22T15:57:55;14.68;;;7.70;;
21152;SDS011;10734;44.792;20.482;2023-02-22T16:00:36;13.88;;;6.60;;
21152;SDS011;10734;44.792;20.482;2023-02-22T16:03:06;16.55;;;6.85;;
21152;SDS011;10734;44.792;20.482;2023-02-22T16:05:39;10.00;;;6.95;;
21152;SDS011;10734;44.792;20.482;2023-02-22T16:08:16;15.45;;;8.15;;
21152;SDS011;10734;44.792;20.482;2023-02-22T16:10:57;10.50;;;6.40;;
21152;SDS011;10734;44.792;20.482;2023-02-22T16:13:32;12.52;;;6.78;;
21152;SDS011;10734;44.792;20.482;2023-02-22T16:16:05;10.68;;;6.60;;
21152;SDS011;10734;44.792;20.482;2023-02-22T16:18:50;10.65;;;6.65;;
21152;SDS011;10734;44.792;20.482;2023-02-22T16:21:18;11.40;;;7.10;;
21152;SDS011;10734;44.792;20.482;2023-02-22T16:23:50;12.55;;;6.70;;
21152;SDS011;10734;44.792;20.482;2023-02-22T16:26:22;12.20;;;7.07;;
21152;SDS011;10734;44.792;20.482;2023-02-22T16:29:03;16.50;;;7.32;;
21152;SDS011;10734;44.792;20.482;2023-02-22T16:31:31;9.95;;;6.78;;
21152;SDS011;10734;44.792;20.482;2023-02-22T16:36:44;15.48;;;8.65;;
21152;SDS011;10734;44.792;20.482;2023-02-22T16:39:13;14.30;;;8.35;;
21152;SDS011;10734;44.792;20.482;2023-02-22T16:41:44;23.90;;;9.63;;
21152;SDS011;10734;44.792;20.482;2023-02-22T16:44:11;11.85;;;7.18;;
21152;SDS011;10734;44.792;20.482;2023-02-22T16:46:38;13.88;;;8.80;;
21152;SDS011;10734;44.792;20.482;2023-02-22T16:49:10;16.27;;;9.15;;
21152;SDS011;10734;44.792;20.482;2023-02-22T16:51:57;15.30;;;9.93;;
21152;SDS011;10734;44.792;20.482;2023-02-22T16:54:25;13.27;;;8.32;;
21152;SDS011;10734;44.792;20.482;2023-02-22T16:56:53;15.05;;;10.57;;
21152;SDS011;10734;44.792;20.482;2023-02-22T16:59:20;20.67;;;12.32;;
21152;SDS011;10734;44.792;20.482;2023-02-22T17:01:47;18.48;;;11.38;;
21152;SDS011;10734;44.792;20.482;2023-02-22T17:04:23;21.77;;;12.10;;
21152;SDS011;10734;44.792;20.482;2023-02-22T17:06:51;19.35;;;11.32;;
21152;SDS011;10734;44.792;20.482;2023-02-22T17:09:18;19.27;;;11.75;;
21152;SDS011;10734;44.792;20.482;2023-02-22T17:11:48;21.85;;;13.32;;
21152;SDS011;10734;44.792;20.482;2023-02-22T17:14:16;24.65;;;14.35;;
21152;SDS011;10734;44.792;20.482;2023-02-22T17:16:43;22.98;;;13.30;;
21152;SDS011;10734;44.792;20.482;2023-02-22T17:19:16;20.20;;;12.07;;
21152;SDS011;10734;44.792;20.482;2023-02-22T17:21:42;22.25;;;12.32;;
21152;SDS011;10734;44.792;20.482;2023-02-22T17:24:12;24.80;;;12.95;;
21152;SDS011;10734;44.792;20.482;2023-02-22T17:26:39;22.98;;;12.45;;
21152;SDS011;10734;44.792;20.482;2023-02-22T17:29:06;34.20;;;21.17;;
21152;SDS011;10734;44.792;20.482;2023-02-22T17:31:32;49.05;;;32.65;;
21152;SDS011;10734;44.792;20.482;2023-02-22T17:34:00;36.50;;;23.05;;
21152;SDS011;10734;44.792;20.482;2023-02-22T17:36:27;30.50;;;20.08;;
21152;SDS011;10734;44.792;20.482;2023-02-22T17:38:54;23.40;;;15.38;;
21152;SDS011;10734;44.792;20.482;2023-02-22T17:41:21;23.48;;;12.75;;
21152;SDS011;10734;44.792;20.482;2023-02-22T17:43:47;19.20;;;11.95;;
21152;SDS011;10734;44.792;20.482;2023-02-22T17:46:14;18.85;;;11.77;;
21152;SDS011;10734;44.792;20.482;2023-02-22T17:48:41;23.05;;;11.75;;
21152;SDS011;10734;44.792;20.482;2023-02-22T17:51:08;16.48;;;9.45;;
21152;SDS011;10734;44.792;20.482;2023-02-22T17:53:36;16.05;;;9.00;;
21152;SDS011;10734;44.792;20.482;2023-02-22T17:56:09;15.40;;;9.90;;
21152;SDS011;10734;44.792;20.482;2023-02-22T17:58:36;16.48;;;8.68;;